Airfield :
LOGIN :

Register | Disclaimer

   EN    FR    IT 

 










Legend :    VFR   Marginal VFR   IFR   Intensive IFR   Very Intensive IFR
Visi :
Ceiling :
>= 8 km
>= 3000ft
5 to 8 km
1000 to 3000 ft
1500m to 5 km
500 to 1000 ft
800 to 1500m
200 to 500 ft
< 800m
< 200 ft
Symbols :   Thunderstorms  Fog  Heavy snow  Heavy precipitations  Wind > 20 kt
SIGMETs :     Misc.  Thunderstorms  Icing  Turbulence  Mountain Waves  Volcanic Ashes






- Airport Elevation : 66 ft
- IATA code : AOK


LGKP - Karpathos

CURRENT METAR :
  • 090050Z AUTO 28018KT //// // ////// 14/11 Q1013 RE//

EXPIRED METARs :
  • 090020Z AUTO 29018KT //// // ////// 14/12 Q1013 RE//
  • 082350Z AUTO 28018KT //// // ////// 14/11 Q1013 RE//
  • 082250Z AUTO 29017KT //// // ////// 15/10 Q1013 RE//
  • 082220Z AUTO 30015KT //// // ////// 14/10 Q1014 RE//

TAF TAF LGKP
Valid from the 09 at 00:00 until the 09 at 09:00 UTC


082300Z 0900/0909 30018KT 9999 SCT018 SCT060
PROB30
TEMPO 0900/0909 5000 RA



MET'MAP, your aeronautical weather chart ! - Copyright ORBIFLY December 2007 - Disclaimer

ORBIFLY MET'MAP TEAM :

Programming & Development : Alexandra Zaïnal
Concept & original design : Baudouin d'Aumeries
Assistance for programming : Marc-Olivier Méhu
Technical & hardware support : Manuel Goepfert

Contact : metmap@orbifly.com




SOURCES & CREDITS :

   NOAA